Sackville, Canada
Current Conditions -  °F | °C
As of 2:00 AM on Monday 26 Jan 2015 (Local Time) from CYQM Reporting Station
Clear Clear  
Wind Chill: -13°   Ceiling: Unl
Heat Index:   Visibility: 15mi
Dew Point: -2°   Wind: 20mph
Humidity: 67%   Direction: 250°WSW
Pressure: 29.76"   Gusts: 29mph
Location:  45.9°N, 64.37°W
Report Text: CYQM 260600Z 25017G25KT 15SM SKC M14/M19 A2976 RMK PRESRR SLP083
Loading
Personal Weather Stations






























Interactive Weather Map New forecast layout! Learn more

10-Day Weather Forecast

Advertisements
Track Severe Weather on mobile